Time;durP1;ratioP1;P1;durP2;ratioP2;P2;SDS_P1;SDS_P2;PMS_P1;PMS_P2;Temp;Humidity;BMP_temperature;BMP_pressure;BME280_temperature;BME280_humidity;BME280_pressure;Samples;Min_cycle;Max_cycle;Signal;HPM_P1;HPM_P2
2023/06/25 00:02:53;;;;;;;3.55;2.75;;;22.60;57.50;;;;;;8366812;28;20520;-78
2023/06/25 00:06:54;;;;;;;2.83;2.30;;;22.60;57.50;;;;;;8266123;28;20037;-79
2023/06/25 00:10:54;;;;;;;3.72;2.65;;;22.60;57.50;;;;;;8279133;28;20394;-78
2023/06/25 00:14:56;;;;;;;3.70;2.60;;;22.60;57.50;;;;;;8279210;28;20412;-78
2023/06/25 00:18:57;;;;;;;3.25;2.30;;;22.60;58.00;;;;;;8279670;28;20034;-78
2023/06/25 00:22:57;;;;;;;3.90;2.30;;;22.60;57.50;;;;;;8263122;28;20181;-78
2023/06/25 00:26:58;;;;;;;4.93;2.50;;;22.60;57.60;;;;;;8262995;28;20039;-79
2023/06/25 00:30:59;;;;;;;4.95;2.67;;;22.60;57.60;;;;;;8262567;28;20113;-78
2023/06/25 00:35:01;;;;;;;5.53;3.03;;;22.60;57.50;;;;;;8262738;28;20044;-78
2023/06/25 00:39:06;;;;;;;4.00;2.60;;;22.60;57.50;;;;;;8262351;28;20037;-78
2023/06/25 00:43:07;;;;;;;5.55;2.88;;;22.60;57.50;;;;;;8262492;28;20034;-78
2023/06/25 00:47:13;;;;;;;3.65;2.60;;;22.60;57.50;;;;;;8263565;28;20066;-78
2023/06/25 00:51:21;;;;;;;4.45;2.72;;;22.60;57.50;;;;;;8278752;28;20483;-79
2023/06/25 00:55:22;;;;;;;3.42;2.25;;;22.60;57.60;;;;;;8278755;28;20081;-78
2023/06/25 00:59:23;;;;;;;;;;;22.60;57.60;;;;;;8278714;28;20403;-78
2023/06/25 01:03:33;;;;;;;3.08;2.47;;;22.60;57.50;;;;;;8263158;28;19910;-78
2023/06/25 01:07:36;;;;;;;4.30;2.78;;;22.60;57.50;;;;;;8261562;28;20038;-79
2023/06/25 01:11:37;;;;;;;6.32;3.10;;;22.60;57.60;;;;;;8278278;28;20041;-79
2023/06/25 01:15:38;;;;;;;3.83;3.03;;;22.60;57.60;;;;;;8261251;28;20054;-79
2023/06/25 01:19:40;;;;;;;4.38;2.63;;;22.60;57.50;;;;;;8261438;28;20387;-78
2023/06/25 01:23:41;;;;;;;4.68;2.55;;;22.60;57.50;;;;;;8261020;28;20542;-78
2023/06/25 01:27:42;;;;;;;3.22;2.40;;;22.50;57.50;;;;;;8262841;28;20391;-78
2023/06/25 01:31:43;;;;;;;3.22;2.65;;;22.60;57.50;;;;;;8262314;28;20085;-78
2023/06/25 01:35:43;;;;;;;3.75;2.78;;;22.60;57.60;;;;;;8245084;28;20034;-78
2023/06/25 01:39:49;;;;;;;3.42;2.50;;;22.60;57.60;;;;;;8245097;28;20037;-78
2023/06/25 01:43:50;;;;;;;3.53;2.45;;;22.50;57.50;;;;;;8262238;28;20439;-79
2023/06/25 01:47:50;;;;;;;3.35;2.42;;;22.60;57.60;;;;;;8244791;28;20108;-78
2023/06/25 01:51:51;;;;;;;3.08;2.30;;;22.60;57.60;;;;;;8261159;28;20026;-78
2023/06/25 01:55:52;;;;;;;;;;;22.50;57.60;;;;;;8261488;28;20035;-78
2023/06/25 01:59:53;;;;;;;3.70;2.47;;;22.50;57.60;;;;;;8262087;28;19916;-78
2023/06/25 02:03:54;;;;;;;3.90;2.92;;;22.50;57.70;;;;;;8260293;28;20065;-78
2023/06/25 02:07:54;;;;;;;;;;;22.50;57.70;;;;;;8262412;28;20045;-78
2023/06/25 02:11:55;;;;;;;4.27;2.57;;;22.50;57.70;;;;;;8244336;28;19914;-79
2023/06/25 02:15:56;;;;;;;2.65;2.10;;;22.50;57.70;;;;;;8287319;28;20056;-78
2023/06/25 02:19:56;;;;;;;5.22;2.75;;;22.50;57.70;;;;;;8276576;28;20360;-78
2023/06/25 02:23:57;;;;;;;2.38;2.17;;;22.50;57.70;;;;;;8276769;28;20497;-79
2023/06/25 02:27:57;;;;;;;2.85;2.10;;;22.50;57.70;;;;;;8293824;28;20061;-78
2023/06/25 02:31:58;;;;;;;3.15;2.50;;;22.50;57.70;;;;;;8293627;28;20069;-78
2023/06/25 02:35:58;;;;;;;4.05;2.20;;;22.40;57.60;;;;;;8300425;28;20486;-79
2023/06/25 02:39:59;;;;;;;3.40;2.38;;;22.50;57.70;;;;;;8282288;28;20445;-78
2023/06/25 02:44:00;;;;;;;2.30;2.10;;;22.50;57.70;;;;;;8282173;28;20046;-78
2023/06/25 02:48:00;;;;;;;3.35;2.53;;;22.50;57.70;;;;;;8265894;28;20038;-78
2023/06/25 02:52:01;;;;;;;4.60;2.40;;;22.40;57.60;;;;;;8282225;28;20080;-79
2023/06/25 02:56:02;;;;;;;4.05;2.38;;;22.50;57.70;;;;;;8281745;28;20073;-78
2023/06/25 03:00:04;;;;;;;3.42;2.13;;;22.40;57.70;;;;;;8281595;28;20446;-78
2023/06/25 03:04:05;;;;;;;3.53;2.40;;;22.50;57.70;;;;;;8299030;28;20030;-78
2023/06/25 03:08:06;;;;;;;3.25;2.15;;;22.50;57.70;;;;;;8298957;28;20045;-78
2023/06/25 03:12:07;;;;;;;2.67;2.00;;;22.50;57.70;;;;;;8280928;28;20038;-78
2023/06/25 03:16:08;;;;;;;2.80;2.38;;;22.40;57.70;;;;;;8281073;28;20053;-78
2023/06/25 03:20:09;;;;;;;5.80;2.28;;;22.40;57.70;;;;;;8281258;28;20077;-79
2023/06/25 03:24:10;;;;;;;2.95;2.10;;;22.40;57.70;;;;;;8298570;28;20037;-79
2023/06/25 03:28:10;;;;;;;2.58;2.00;;;22.40;57.70;;;;;;8280745;28;20048;-79
2023/06/25 03:32:11;;;;;;;3.72;2.38;;;22.40;57.70;;;;;;8280559;28;20030;-79
2023/06/25 03:36:12;;;;;;;2.60;2.13;;;22.40;57.70;;;;;;8280825;28;20041;-79
2023/06/25 03:40:13;;;;;;;4.00;2.17;;;22.40;58.00;;;;;;8297722;28;20053;-77
2023/06/25 03:44:14;;;;;;;2.55;2.17;;;22.40;57.70;;;;;;8296521;28;20037;-78
2023/06/25 03:48:15;;;;;;;2.60;2.10;;;22.40;57.70;;;;;;8280209;28;20452;-78
2023/06/25 03:52:15;;;;;;;3.10;2.40;;;22.40;57.70;;;;;;8280454;28;20117;-78
2023/06/25 03:56:16;;;;;;;3.13;2.22;;;22.40;57.70;;;;;;8297328;28;20034;-79
2023/06/25 04:00:17;;;;;;;2.85;2.00;;;22.40;57.70;;;;;;8279753;28;20041;-78
2023/06/25 04:04:17;;;;;;;2.20;2.00;;;22.40;57.70;;;;;;8297678;28;20103;-79
2023/06/25 04:08:18;;;;;;;2.20;1.70;;;22.40;57.70;;;;;;8247198;28;20161;-79
2023/06/25 04:12:19;;;;;;;3.53;2.13;;;22.40;57.70;;;;;;8279705;28;20439;-79
2023/06/25 04:16:20;;;;;;;3.72;2.28;;;22.40;57.70;;;;;;8279014;28;20057;-78
2023/06/25 04:20:20;;;;;;;2.50;1.92;;;22.40;57.70;;;;;;8279401;28;20087;-78
2023/06/25 04:24:21;;;;;;;2.70;2.15;;;22.40;57.70;;;;;;8297127;28;20136;-78
2023/06/25 04:28:22;;;;;;;4.22;2.22;;;22.40;57.70;;;;;;8296244;28;20125;-78
2023/06/25 04:32:23;;;;;;;3.35;2.20;;;22.40;57.70;;;;;;8278793;28;20060;-78
2023/06/25 04:36:23;;;;;;;3.95;2.30;;;22.40;57.70;;;;;;8278551;28;20046;-78
2023/06/25 04:40:24;;;;;;;3.20;2.17;;;22.40;57.80;;;;;;8295990;28;20538;-79
2023/06/25 04:44:26;;;;;;;2.78;2.15;;;22.40;57.80;;;;;;8262467;28;20053;-79
2023/06/25 04:48:27;;;;;;;2.80;2.10;;;22.40;57.80;;;;;;8294572;28;20529;-79
2023/06/25 04:52:27;;;;;;;3.25;1.80;;;22.40;57.80;;;;;;8278226;28;20398;-79
2023/06/25 04:56:28;;;;;;;4.15;2.75;;;22.40;57.80;;;;;;8277806;28;20372;-79
2023/06/25 05:00:28;;;;;;;2.80;2.05;;;22.40;57.80;;;;;;8278001;28;20368;-79
2023/06/25 05:04:29;;;;;;;1.70;1.52;;;22.40;57.70;;;;;;8277831;28;20282;-79
2023/06/25 05:08:30;;;;;;;3.03;2.08;;;22.40;57.70;;;;;;8277818;28;20113;-79
2023/06/25 05:12:31;;;;;;;2.25;1.80;;;22.40;57.70;;;;;;8261285;28;20505;-79
2023/06/25 05:16:31;;;;;;;3.50;2.35;;;22.40;57.70;;;;;;8277238;28;20112;-78
2023/06/25 05:20:35;;;;;;;2.78;1.70;;;22.40;57.70;;;;;;8295254;28;20037;-78
2023/06/25 05:24:36;;;;;;;3.45;2.15;;;22.40;57.70;;;;;;8295305;28;20034;-79
2023/06/25 05:28:38;;;;;;;4.38;2.30;;;22.40;57.70;;;;;;8277268;28;20065;-79
2023/06/25 05:32:38;;;;;;;3.03;2.22;;;22.40;57.70;;;;;;8295653;28;20249;-79
2023/06/25 05:36:39;;;;;;;3.03;1.83;;;22.40;57.70;;;;;;8277148;28;20641;-78
2023/06/25 05:40:39;;;;;;;1.77;1.67;;;22.40;57.70;;;;;;8294997;28;20045;-78
2023/06/25 05:44:40;;;;;;;2.08;1.48;;;22.40;57.70;;;;;;8294624;28;20038;-79
2023/06/25 05:48:41;;;;;;;2.72;2.08;;;22.40;57.70;;;;;;8277096;28;20038;-79
2023/06/25 05:52:42;;;;;;;3.00;1.90;;;22.40;57.70;;;;;;8277390;28;20475;-79
2023/06/25 05:56:43;;;;;;;2.67;2.05;;;22.40;57.80;;;;;;8277186;28;20053;-78
2023/06/25 06:00:44;;;;;;;2.70;1.92;;;22.40;57.80;;;;;;8260711;28;20029;-79
2023/06/25 06:04:44;;;;;;;2.67;1.83;;;22.40;57.80;;;;;;8276824;28;20072;-79
2023/06/25 06:08:45;;;;;;;1.95;1.77;;;22.40;57.80;;;;;;8296511;28;20104;-78
2023/06/25 06:12:46;;;;;;;2.50;1.83;;;22.30;57.80;;;;;;8300660;28;20475;-78
2023/06/25 06:16:46;;;;;;;2.45;1.90;;;22.40;57.80;;;;;;8283258;28;20045;-78
2023/06/25 06:20:47;;;;;;;2.33;1.70;;;22.30;57.80;;;;;;8267480;28;20113;-78
2023/06/25 06:24:47;;;;;;;2.53;1.98;;;22.30;57.80;;;;;;8283367;28;20050;-78
2023/06/25 06:28:48;;;;;;;2.85;2.03;;;22.30;57.80;;;;;;8282561;28;20501;-79
2023/06/25 06:32:49;;;;;;;2.40;1.80;;;22.30;57.80;;;;;;8300319;28;20034;-78
2023/06/25 06:36:49;;;;;;;2.75;1.90;;;22.30;57.80;;;;;;8300107;28;20418;-79
2023/06/25 06:40:50;;;;;;;2.60;1.83;;;22.30;57.80;;;;;;8282749;28;20475;-79
2023/06/25 06:44:51;;;;;;;1.95;1.65;;;22.40;57.80;;;;;;8299903;28;20040;-78
2023/06/25 06:48:51;;;;;;;2.65;1.75;;;22.30;57.80;;;;;;8282392;28;20112;-78
2023/06/25 06:52:52;;;;;;;1.80;1.70;;;22.40;57.80;;;;;;8266249;28;20095;-78
2023/06/25 06:56:53;;;;;;;1.90;1.70;;;22.40;57.80;;;;;;8282020;28;20030;-78
2023/06/25 07:00:54;;;;;;;1.77;1.50;;;22.40;57.80;;;;;;8265472;28;20072;-79
2023/06/25 07:04:54;;;;;;;;;;;22.30;57.80;;;;;;8299721;28;20033;-79
2023/06/25 07:08:55;;;;;;;2.37;1.80;;;22.30;57.80;;;;;;8299104;28;19910;-78
2023/06/25 07:12:56;;;;;;;1.83;1.63;;;22.30;57.80;;;;;;8298592;28;20034;-79
2023/06/25 07:16:57;;;;;;;1.88;1.52;;;22.30;57.80;;;;;;8298578;28;20041;-79
2023/06/25 07:20:57;;;;;;;2.38;1.70;;;22.30;57.80;;;;;;8280897;28;20487;-78
2023/06/25 07:24:58;;;;;;;2.55;1.90;;;22.30;57.80;;;;;;8280834;28;20045;-78
2023/06/25 07:28:59;;;;;;;;;;;22.30;57.80;;;;;;8281165;28;20030;-78
2023/06/25 07:33:00;;;;;;;2.10;1.50;;;22.30;57.80;;;;;;8298026;28;19917;-78
2023/06/25 07:37:01;;;;;;;2.60;1.90;;;22.30;57.80;;;;;;8298081;28;20038;-78
2023/06/25 07:41:01;;;;;;;1.73;1.40;;;22.30;57.80;;;;;;8264103;28;20049;-79
2023/06/25 07:45:02;;;;;;;2.40;1.70;;;22.30;57.80;;;;;;8298289;28;20049;-78
2023/06/25 07:49:03;;;;;;;1.95;1.48;;;22.30;57.80;;;;;;8280168;28;20483;-78
2023/06/25 07:53:03;;;;;;;2.25;1.63;;;22.30;57.80;;;;;;8280065;28;20188;-78
2023/06/25 07:57:04;;;;;;;2.40;1.80;;;22.30;57.80;;;;;;8297393;28;20391;-78
2023/06/25 08:01:05;;;;;;;1.85;1.50;;;22.30;57.80;;;;;;8297310;28;20509;-79
2023/06/25 08:05:06;;;;;;;1.98;1.70;;;22.40;57.80;;;;;;8263392;28;20384;-78
2023/06/25 08:09:07;;;;;;;2.85;1.95;;;22.40;57.80;;;;;;8263347;28;20124;-79
2023/06/25 08:13:08;;;;;;;2.30;1.92;;;22.40;57.80;;;;;;8279176;28;20061;-79
2023/06/25 08:17:08;;;;;;;2.90;2.03;;;22.30;57.80;;;;;;8296932;28;20487;-79
2023/06/25 08:21:09;;;;;;;1.92;1.60;;;22.40;57.80;;;;;;8246994;28;20026;-78
2023/06/25 08:25:24;;;;;;;2.28;1.80;;;22.30;57.80;;;;;;8296805;28;20502;-78
2023/06/25 08:29:26;;;;;;;2.80;1.75;;;22.40;57.80;;;;;;8278944;28;20406;-78
2023/06/25 08:33:26;;;;;;;;;;;22.40;57.80;;;;;;8296062;28;20038;-78
2023/06/25 08:37:27;;;;;;;2.30;1.53;;;22.40;57.80;;;;;;8278638;28;20429;-79
2023/06/25 08:41:28;;;;;;;3.08;1.75;;;22.40;57.80;;;;;;8296129;28;20030;-78
2023/06/25 08:45:29;;;;;;;1.65;1.55;;;22.40;57.80;;;;;;8278932;28;20037;-78
2023/06/25 08:49:31;;;;;;;1.60;1.50;;;22.40;57.80;;;;;;8278651;28;20042;-78
2023/06/25 08:53:32;;;;;;;2.15;1.60;;;22.40;57.80;;;;;;8278277;28;20494;-78
2023/06/25 08:57:32;;;;;;;2.45;1.50;;;22.30;57.80;;;;;;8278154;28;20441;-78
2023/06/25 09:01:33;;;;;;;2.70;1.50;;;22.40;57.80;;;;;;8295351;28;20033;-78
2023/06/25 09:05:34;;;;;;;1.88;1.52;;;22.40;57.80;;;;;;8277823;28;20030;-78
2023/06/25 09:09:34;;;;;;;1.35;1.25;;;22.40;57.80;;;;;;8277855;28;20030;-78
2023/06/25 09:13:36;;;;;;;2.50;1.70;;;22.40;57.90;;;;;;8295056;28;20054;-78
2023/06/25 09:17:37;;;;;;;1.73;1.30;;;22.40;57.80;;;;;;8293774;28;20113;-78
2023/06/25 09:21:38;;;;;;;1.63;1.52;;;22.40;57.90;;;;;;8295187;28;20038;-78
2023/06/25 09:25:39;;;;;;;1.77;1.65;;;22.40;57.80;;;;;;8295038;28;20113;-78
2023/06/25 09:29:40;;;;;;;2.00;1.52;;;22.40;57.80;;;;;;8294739;28;20088;-79
2023/06/25 09:33:40;;;;;;;2.65;1.45;;;22.40;57.80;;;;;;8294454;28;20091;-79
2023/06/25 09:37:41;;;;;;;1.90;1.70;;;22.30;57.90;;;;;;8277165;28;20104;-79
2023/06/25 09:41:42;;;;;;;1.70;1.60;;;22.40;57.80;;;;;;8293581;28;20041;-79
2023/06/25 09:45:44;;;;;;;1.48;1.30;;;22.40;57.90;;;;;;8276656;28;20041;-79
2023/06/25 09:49:46;;;;;;;2.15;1.58;;;22.30;57.90;;;;;;8276572;28;20041;-78
2023/06/25 09:53:50;;;;;;;1.80;1.38;;;22.30;57.80;;;;;;8276962;28;20029;-79
2023/06/25 09:57:52;;;;;;;1.85;1.50;;;22.30;57.80;;;;;;8260612;28;20021;-79
2023/06/25 10:01:53;;;;;;;2.00;1.63;;;22.30;57.90;;;;;;8276672;28;20107;-78
2023/06/25 10:05:54;;;;;;;1.40;1.25;;;22.30;57.80;;;;;;8276607;28;20151;-79
2023/06/25 10:09:55;;;;;;;;;;;22.30;57.90;;;;;;8260762;28;20079;-78
2023/06/25 10:13:57;;;;;;;1.80;1.57;;;22.30;57.80;;;;;;8293843;28;19925;-78
2023/06/25 10:18:03;;;;;;;1.50;1.40;;;22.30;57.80;;;;;;8276732;28;20026;-79
2023/06/25 10:22:10;;;;;;;2.20;1.88;;;22.40;57.90;;;;;;8276643;28;20038;-78
2023/06/25 10:26:13;;;;;;;2.08;1.48;;;22.30;57.80;;;;;;8293666;28;20034;-78
2023/06/25 10:30:14;;;;;;;1.77;1.60;;;22.30;57.80;;;;;;8292486;28;20026;-79
2023/06/25 10:34:15;;;;;;;1.83;1.30;;;22.30;57.80;;;;;;8276734;28;20032;-79
2023/06/25 10:38:16;;;;;;;1.98;1.50;;;22.30;57.80;;;;;;8276171;28;20026;-79
2023/06/25 10:42:16;;;;;;;1.88;1.52;;;22.30;57.80;;;;;;8276285;28;20037;-79
2023/06/25 10:46:17;;;;;;;1.65;1.50;;;22.30;57.80;;;;;;8276035;28;20038;-79
2023/06/25 10:50:18;;;;;;;1.80;1.63;;;22.40;57.80;;;;;;8293735;28;20092;-79
2023/06/25 10:54:21;;;;;;;1.55;1.40;;;22.40;57.80;;;;;;8278272;28;20076;-79
2023/06/25 10:58:23;;;;;;;1.50;1.38;;;22.40;57.80;;;;;;8281921;28;20021;-79
2023/06/25 11:02:25;;;;;;;1.50;1.40;;;22.40;57.80;;;;;;8281577;28;20044;-79
2023/06/25 11:06:27;;;;;;;2.00;1.75;;;22.40;57.70;;;;;;8281650;28;20033;-79
2023/06/25 11:10:29;;;;;;;2.03;1.30;;;22.40;57.70;;;;;;8283154;28;20145;-78
2023/06/25 11:14:30;;;;;;;1.63;1.30;;;22.40;57.70;;;;;;8283102;28;20052;-78
2023/06/25 11:18:31;;;;;;;;;;;22.40;57.70;;;;;;8284144;28;20475;-78
2023/06/25 11:22:42;;;;;;;1.70;1.20;;;22.40;57.70;;;;;;8318110;28;19920;-78
2023/06/25 11:26:43;;;;;;;1.73;1.48;;;22.40;57.70;;;;;;8323922;28;20018;-79
2023/06/25 11:30:45;;;;;;;1.48;1.38;;;22.40;57.70;;;;;;8322940;28;20034;-78
2023/06/25 11:34:45;;;;;;;1.42;1.23;;;22.40;57.70;;;;;;8298167;28;20046;-78
2023/06/25 11:38:46;;;;;;;1.60;1.40;;;22.40;57.70;;;;;;8280768;28;20041;-78
2023/06/25 11:42:47;;;;;;;1.45;1.25;;;22.40;57.70;;;;;;8280568;28;20029;-78
2023/06/25 11:46:51;;;;;;;1.98;1.48;;;22.40;57.70;;;;;;8298041;28;20049;-78
2023/06/25 11:50:52;;;;;;;1.17;1.08;;;22.40;57.80;;;;;;8280910;28;20041;-79
2023/06/25 11:54:53;;;;;;;1.50;1.40;;;22.40;57.80;;;;;;8264049;28;20022;-78
2023/06/25 11:58:53;;;;;;;1.50;1.40;;;22.40;57.80;;;;;;8280215;28;20156;-79
2023/06/25 12:02:54;;;;;;;1.40;1.20;;;22.40;57.70;;;;;;8264082;28;20403;-79
2023/06/25 12:06:55;;;;;;;1.45;1.17;;;22.40;57.70;;;;;;8278889;28;20488;-79
2023/06/25 12:10:55;;;;;;;1.75;1.15;;;22.40;57.70;;;;;;8280156;28;20038;-78
2023/06/25 12:14:56;;;;;;;1.73;1.40;;;22.40;57.70;;;;;;8298423;28;20137;-79
2023/06/25 12:18:57;;;;;;;1.80;1.50;;;22.40;57.70;;;;;;8298999;28;20069;-78
2023/06/25 12:22:57;;;;;;;1.58;1.45;;;22.50;57.80;;;;;;8266892;28;20037;-78
2023/06/25 12:26:58;;;;;;;1.35;1.25;;;22.50;57.70;;;;;;8310332;28;20029;-79
2023/06/25 12:30:58;;;;;;;1.35;1.10;;;22.40;57.70;;;;;;8321974;28;20018;-78
2023/06/25 12:34:59;;;;;;;1.65;1.20;;;22.40;57.60;;;;;;8321265;28;20049;-78
2023/06/25 12:39:00;;;;;;;1.33;1.23;;;22.50;57.70;;;;;;8338599;28;20065;-78
2023/06/25 12:43:01;;;;;;;1.48;1.30;;;22.40;57.70;;;;;;8320782;28;20075;-78
2023/06/25 12:47:02;;;;;;;1.50;1.20;;;22.50;57.70;;;;;;8321379;28;20042;-78
2023/06/25 12:51:03;;;;;;;1.30;1.17;;;22.50;57.70;;;;;;8303482;28;20056;-79
2023/06/25 12:55:05;;;;;;;1.40;1.30;;;22.40;57.60;;;;;;8272964;28;20046;-78
2023/06/25 12:59:06;;;;;;;1.33;1.23;;;22.50;57.70;;;;;;8279294;28;20030;-78
2023/06/25 13:03:07;;;;;;;1.30;1.20;;;22.50;58.20;;;;;;8278116;28;20041;-79
2023/06/25 13:07:07;;;;;;;2.00;1.35;;;22.50;57.70;;;;;;8261835;28;20040;-77
2023/06/25 13:11:08;;;;;;;1.67;1.35;;;22.40;57.60;;;;;;8295154;28;20037;-79
2023/06/25 13:15:09;;;;;;;1.70;1.30;;;22.50;57.70;;;;;;8295041;28;20685;-78
2023/06/25 13:19:10;;;;;;;;;;;22.50;57.70;;;;;;8246105;28;20399;-78
2023/06/25 13:23:10;;;;;;;1.23;1.13;;;22.50;58.20;;;;;;8295748;28;19952;-78
2023/06/25 13:27:11;;;;;;;1.30;1.13;;;22.50;57.70;;;;;;8277436;28;20141;-78
2023/06/25 13:31:11;;;;;;;1.17;1.08;;;22.50;57.70;;;;;;8294995;28;20053;-78
2023/06/25 13:35:12;;;;;;;1.42;1.00;;;22.40;57.60;;;;;;8294964;28;20045;-78
2023/06/25 13:39:13;;;;;;;1.40;1.20;;;22.50;57.60;;;;;;8277246;28;20357;-78
2023/06/25 13:43:13;;;;;;;1.30;1.20;;;22.50;57.60;;;;;;8277364;28;20065;-78
2023/06/25 13:47:14;;;;;;;1.65;1.20;;;22.50;57.50;;;;;;8277044;28;20056;-78
2023/06/25 13:51:15;;;;;;;1.42;1.30;;;22.50;57.50;;;;;;8294377;28;20030;-78
2023/06/25 13:55:16;;;;;;;1.10;1.00;;;22.50;57.50;;;;;;8294144;28;20160;-79
2023/06/25 13:59:16;;;;;;;1.83;1.30;;;22.50;57.50;;;;;;8294608;28;20030;-79
2023/06/25 14:03:17;;;;;;;1.23;1.13;;;22.50;57.50;;;;;;8277044;28;20038;-78
2023/06/25 14:07:17;;;;;;;1.40;1.17;;;22.50;57.50;;;;;;8277331;28;20037;-79
2023/06/25 14:11:18;;;;;;;1.40;1.20;;;22.50;57.40;;;;;;8294514;28;20041;-79
2023/06/25 14:15:19;;;;;;;;;;;22.50;57.50;;;;;;8294346;28;20100;-79
2023/06/25 14:19:20;;;;;;;1.50;1.13;;;22.50;57.40;;;;;;8294533;28;20001;-79
2023/06/25 14:23:21;;;;;;;1.23;1.00;;;22.60;57.40;;;;;;8294633;28;20052;-78
2023/06/25 14:27:22;;;;;;;1.85;1.27;;;22.50;58.00;;;;;;8294469;28;20099;-79
2023/06/25 14:31:24;;;;;;;1.40;1.02;;;22.50;57.50;;;;;;8282816;28;20507;-79
2023/06/25 14:35:25;;;;;;;1.30;1.20;;;22.50;57.60;;;;;;8288613;28;20037;-79
2023/06/25 14:39:26;;;;;;;1.42;1.23;;;22.50;57.60;;;;;;8323782;28;20089;-78
2023/06/25 14:43:27;;;;;;;1.20;1.10;;;22.50;57.50;;;;;;8342290;28;20036;-78
2023/06/25 14:47:27;;;;;;;1.35;1.23;;;22.50;57.50;;;;;;8297372;28;20648;-78
2023/06/25 14:51:28;;;;;;;1.00;0.93;;;22.50;57.40;;;;;;8300282;28;20042;-78
2023/06/25 14:55:28;;;;;;;1.20;1.10;;;22.60;57.40;;;;;;8282142;28;20052;-78
2023/06/25 14:59:29;;;;;;;1.33;1.10;;;22.60;57.40;;;;;;8281782;28;20065;-78
2023/06/25 15:03:30;;;;;;;1.40;1.25;;;22.60;57.30;;;;;;8281836;28;20580;-79
2023/06/25 15:07:31;;;;;;;1.10;1.00;;;22.60;57.40;;;;;;8299481;28;20075;-78
2023/06/25 15:11:32;;;;;;;1.63;1.30;;;22.60;57.30;;;;;;8281710;28;20048;-78
2023/06/25 15:15:32;;;;;;;;;;;22.60;57.30;;;;;;8299155;28;20109;-79
2023/06/25 15:19:34;;;;;;;1.47;1.20;;;22.60;57.30;;;;;;8298769;28;19909;-78
2023/06/25 15:23:34;;;;;;;1.20;1.10;;;22.60;57.40;;;;;;8298882;28;20041;-79
2023/06/25 15:27:35;;;;;;;1.48;1.38;;;22.60;57.40;;;;;;8298551;28;20037;-78
2023/06/25 15:31:35;;;;;;;1.25;1.13;;;22.60;57.40;;;;;;8280767;28;20070;-78
2023/06/25 15:35:36;;;;;;;1.33;1.20;;;22.50;57.40;;;;;;8298338;28;20034;-78
2023/06/25 15:39:37;;;;;;;1.95;1.45;;;22.60;57.50;;;;;;8298084;28;20506;-78
2023/06/25 15:43:37;;;;;;;1.50;1.23;;;22.60;57.50;;;;;;8280298;28;20029;-79
2023/06/25 15:47:38;;;;;;;1.30;1.20;;;22.50;57.40;;;;;;8280391;28;20096;-79
2023/06/25 15:51:40;;;;;;;1.77;1.20;;;22.50;57.50;;;;;;8296863;28;20080;-78
2023/06/25 15:55:42;;;;;;;1.15;1.05;;;22.50;57.50;;;;;;8280075;28;20499;-78
2023/06/25 15:59:42;;;;;;;1.02;0.93;;;22.50;57.50;;;;;;8280417;28;20386;-79
2023/06/25 16:03:43;;;;;;;1.17;1.02;;;22.50;57.60;;;;;;8279843;28;20034;-79
2023/06/25 16:07:44;;;;;;;1.10;1.00;;;22.50;57.50;;;;;;8279838;28;20042;-78
2023/06/25 16:11:47;;;;;;;1.33;1.10;;;22.50;57.60;;;;;;8279765;28;20038;-79
2023/06/25 16:15:48;;;;;;;1.17;1.00;;;22.50;57.60;;;;;;8296839;28;20061;-78
2023/06/25 16:19:48;;;;;;;1.23;0.98;;;22.50;57.50;;;;;;8263158;28;20034;-78
2023/06/25 16:23:49;;;;;;;1.00;0.90;;;22.50;57.50;;;;;;8279594;28;20483;-79
2023/06/25 16:27:50;;;;;;;1.35;1.05;;;22.50;57.50;;;;;;8296674;28;20033;-79
2023/06/25 16:31:50;;;;;;;1.20;1.00;;;22.50;57.50;;;;;;8278723;28;20048;-78
2023/06/25 16:35:51;;;;;;;1.38;1.25;;;22.50;57.50;;;;;;8262572;28;20041;-79
2023/06/25 16:39:52;;;;;;;1.77;1.25;;;22.50;57.60;;;;;;8278971;28;20034;-79
2023/06/25 16:43:52;;;;;;;1.38;1.08;;;22.50;57.50;;;;;;8278437;28;20045;-78
2023/06/25 16:47:53;;;;;;;0.90;0.90;;;22.50;57.50;;;;;;8278619;28;20034;-78
2023/06/25 16:51:54;;;;;;;1.35;1.00;;;22.50;57.50;;;;;;8278440;28;20040;-78
2023/06/25 16:55:55;;;;;;;1.85;1.70;;;22.50;57.50;;;;;;8286143;28;20045;-78
2023/06/25 16:59:55;;;;;;;;;;;22.60;57.20;;;;;;8275292;28;20113;-78
2023/06/25 17:03:56;;;;;;;5.03;2.43;;;22.70;57.80;;;;;;8276508;28;20374;-77
2023/06/25 17:07:57;;;;;;;4.82;2.70;;;22.80;58.20;;;;;;8274278;28;20372;-80
2023/06/25 17:11:58;;;;;;;3.72;2.72;;;22.70;59.20;;;;;;8269384;28;20416;-74
2023/06/25 17:15:59;;;;;;;4.82;2.20;;;22.70;59.30;;;;;;8262847;28;20148;-73
2023/06/25 17:19:59;;;;;;;2.30;1.90;;;22.70;59.40;;;;;;8247322;28;20038;-74
2023/06/25 17:24:00;;;;;;;3.53;2.08;;;22.70;59.40;;;;;;8260797;28;20037;-74
2023/06/25 17:28:00;;;;;;;2.70;2.08;;;22.70;59.10;;;;;;8277606;28;20073;-73
2023/06/25 17:32:01;;;;;;;2.53;1.92;;;22.70;58.20;;;;;;8279026;28;20494;-74
2023/06/25 17:36:02;;;;;;;3.95;2.05;;;22.80;58.20;;;;;;8277703;28;20390;-74
2023/06/25 17:40:03;;;;;;;3.85;1.80;;;22.80;58.30;;;;;;8275170;28;20030;-73
2023/06/25 17:44:03;;;;;;;;;;;22.80;58.50;;;;;;8293550;28;20384;-73
2023/06/25 17:48:04;;;;;;;6.10;1.50;;;22.80;58.80;;;;;;8275369;28;19913;-74
2023/06/25 17:52:05;;;;;;;2.28;1.73;;;22.70;58.60;;;;;;8296532;28;20092;-73
2023/06/25 17:56:07;;;;;;;1.92;1.70;;;22.70;58.80;;;;;;8295737;28;20399;-73
2023/06/25 18:00:09;;;;;;;4.75;2.25;;;22.80;58.20;;;;;;8294884;28;20034;-73
2023/06/25 18:04:10;;;;;;;2.42;1.92;;;22.80;58.30;;;;;;8296650;28;20072;-74
2023/06/25 18:08:10;;;;;;;3.47;1.65;;;22.90;58.20;;;;;;8302689;28;20041;-73
2023/06/25 18:12:12;;;;;;;3.42;1.80;;;22.80;58.20;;;;;;8302617;28;20045;-74
2023/06/25 18:16:13;;;;;;;2.95;1.88;;;22.80;58.10;;;;;;8302276;28;20503;-74
2023/06/25 18:20:14;;;;;;;3.47;1.95;;;22.90;58.10;;;;;;8302617;28;20471;-73
2023/06/25 18:24:14;;;;;;;2.20;1.70;;;22.90;58.00;;;;;;8268587;28;20038;-73
2023/06/25 18:28:15;;;;;;;3.50;1.60;;;22.90;58.10;;;;;;8301605;28;20399;-73
2023/06/25 18:32:16;;;;;;;2.13;1.60;;;22.90;58.10;;;;;;8280929;28;20044;-73
2023/06/25 18:36:16;;;;;;;2.22;1.70;;;22.90;58.00;;;;;;8265334;28;20090;-75
2023/06/25 18:40:17;;;;;;;2.13;1.60;;;22.90;58.40;;;;;;8283966;28;20025;-73
2023/06/25 18:44:18;;;;;;;4.10;1.95;;;22.90;58.20;;;;;;8290054;28;20057;-73
2023/06/25 18:48:19;;;;;;;;;;;22.90;58.70;;;;;;8281897;28;20038;-73
2023/06/25 18:52:19;;;;;;;3.97;1.90;;;22.90;58.00;;;;;;8282407;28;20004;-71
2023/06/25 18:56:20;;;;;;;3.15;2.00;;;22.90;57.90;;;;;;8283146;28;20040;-72
2023/06/25 19:00:21;;;;;;;2.28;1.80;;;22.90;57.80;;;;;;8282525;28;20053;-75
2023/06/25 19:04:23;;;;;;;2.00;1.80;;;22.90;57.80;;;;;;8300543;28;20546;-72
2023/06/25 19:08:23;;;;;;;3.53;1.80;;;22.90;57.80;;;;;;8299185;28;20044;-73
2023/06/25 19:12:24;;;;;;;2.70;1.58;;;22.90;57.80;;;;;;8300737;28;20050;-73
2023/06/25 19:16:25;;;;;;;;;;;22.90;57.80;;;;;;8266973;28;20061;-73
2023/06/25 19:20:25;;;;;;;3.33;1.70;;;22.90;57.80;;;;;;8268085;28;19926;-72
2023/06/25 19:24:26;;;;;;;2.92;2.25;;;22.90;57.90;;;;;;8266214;28;20038;-74
2023/06/25 19:28:26;;;;;;;;;;;22.90;57.80;;;;;;8267418;28;20065;-71
2023/06/25 19:32:27;;;;;;;7.67;2.90;;;22.90;57.80;;;;;;8266504;28;20410;-72
2023/06/25 19:36:28;;;;;;;11.05;3.47;;;23.00;57.90;;;;;;8266848;28;20108;-72
2023/06/25 19:40:28;;;;;;;14.32;5.55;;;22.90;57.80;;;;;;8267594;28;20050;-75
2023/06/25 19:44:29;;;;;;;15.15;6.28;;;23.00;57.90;;;;;;8265938;28;20057;-75
2023/06/25 19:48:29;;;;;;;18.65;7.15;;;23.00;57.90;;;;;;8266346;28;20049;-75
2023/06/25 19:52:30;;;;;;;18.00;8.15;;;23.00;57.90;;;;;;8266023;28;20125;-75
2023/06/25 19:56:31;;;;;;;16.83;6.50;;;23.00;58.00;;;;;;8266092;28;20031;-75
2023/06/25 20:00:31;;;;;;;16.70;6.50;;;23.00;57.90;;;;;;8263816;28;20042;-71
2023/06/25 20:04:32;;;;;;;19.83;7.22;;;23.00;57.90;;;;;;8262611;28;20411;-71
2023/06/25 20:08:33;;;;;;;17.77;7.05;;;23.00;57.90;;;;;;8265406;28;20073;-71
2023/06/25 20:12:33;;;;;;;18.58;7.95;;;23.00;57.90;;;;;;8265396;28;20367;-71
2023/06/25 20:16:34;;;;;;;22.17;8.10;;;23.00;58.00;;;;;;8264946;28;20440;-72
2023/06/25 20:20:34;;;;;;;22.55;9.20;;;23.00;58.00;;;;;;8265404;28;20054;-72
2023/06/25 20:24:35;;;;;;;26.33;9.60;;;23.00;58.00;;;;;;8266760;28;20046;-73
2023/06/25 20:28:36;;;;;;;26.45;9.75;;;23.00;58.00;;;;;;8250860;28;20492;-73
2023/06/25 20:32:36;;;;;;;;;;;23.00;58.00;;;;;;8270581;28;20039;-74
2023/06/25 20:36:37;;;;;;;33.83;10.27;;;23.00;58.00;;;;;;8279669;28;19908;-74
2023/06/25 20:40:37;;;;;;;29.65;10.05;;;23.00;58.10;;;;;;8289628;28;20047;-74
2023/06/25 20:44:40;;;;;;;28.80;12.98;;;23.00;58.10;;;;;;8286751;28;20018;-74
2023/06/25 20:48:41;;;;;;;29.92;10.48;;;23.00;58.10;;;;;;8303273;28;20098;-74
2023/06/25 20:52:41;;;;;;;23.08;10.45;;;23.00;58.10;;;;;;8305007;28;20054;-73
2023/06/25 20:56:42;;;;;;;29.95;11.63;;;23.00;58.10;;;;;;8289206;28;20033;-73
2023/06/25 21:00:44;;;;;;;29.80;11.95;;;23.00;58.30;;;;;;8305673;28;20014;-74